Valley Peak, Santa Cruz Island Reserve, California Weather observations

Data are for 10 minute period ending at time listed.
 Day   Time   Solar   Ave.   Ave.  Ave.  Vector  Max.   Baro.   Total    
  of    of     Rad.   Air    Rel.  Wind   Wind   Wind  Press.  Precip.   
Year   Day            Temp.  Hum.  Speed  Dir.   Gust                    
2014   (PST)  Kw/m2    F      %     mph   deg.    mph    mb.     in.     
-------------------------------------------------------------------------
 295    0:30   0.00   65.9    46    8.3   354    10.2   962.8    0.00 
 295    0:40   0.00   65.8    47    6.3    15     9.4   962.8    0.00 
 295    0:50   0.00   64.9    48    5.8    18     7.9   962.8    0.00 
 295    1:00   0.00   65.0    48    6.7    16     8.0   962.8    0.00 
 295    1:10   0.00   64.2    49    7.4    27     8.8   962.8    0.00 
 295    1:20   0.00   63.8    50    6.6    16     8.3   962.7    0.00 
 295    1:30   0.00   64.2    50    6.0     9     7.6   962.7    0.00 
 295    1:40   0.00   64.6    49    5.8   356     7.1   962.7    0.00 
 295    1:50   0.00   65.4    48    7.4   349     9.4   962.8    0.00 
 295    2:00   0.00   65.6    47    8.1   340     9.5   962.9    0.00 
 295    2:10   0.00   65.9    46    9.5   348    11.2   962.9    0.00 
 295    2:20   0.00   65.1    47    9.2   358    11.1   962.8    0.00 
 295    2:30   0.00   64.6    49    6.1    11     8.4   962.8    0.00 
 295    2:40   0.00   64.8    48    4.9    11     6.1   962.7    0.00 
 295    2:50   0.00   64.1    54    3.2    60     4.7   962.6    0.00 
 295    3:00   0.00   64.3    50    2.5    67     4.1   962.6    0.00 
 295    3:10   0.00   64.0    56    2.4    73     4.9   962.7    0.00 
 295    3:20   0.00   63.9    51    2.9    40     3.8   962.7    0.00 
 295    3:30   0.00   64.4    50    3.6    59     4.2   962.7    0.00 
 295    3:40   0.00   64.3    50    3.6    43     4.7   962.7    0.00 
 295    3:50   0.00   63.4    75    4.1   116     5.3   962.7    0.00 
 295    4:00   0.00   61.8    76    3.9    69     5.0   962.9    0.00 
 295    4:10   0.00   62.9    55    5.0     9     7.7   963.1    0.00 
 295    4:20   0.00   63.6    53    6.9     1     8.3   963.1    0.00 
 295    4:30   0.00   63.1    55    7.2    10     8.2   963.3    0.00 
 295    4:40   0.00   62.6    58    7.0    26     8.2   963.4    0.00 
 295    4:50   0.00   62.0    60    5.4    33     6.1   963.5    0.00 
 295    5:00   0.00   61.5    63    5.2    40     5.8   963.5    0.00 
 295    5:10   0.00   61.3    64    4.6    52     5.7   963.5    0.00 
 295    5:20   0.00   61.1    65    3.8    55     4.4   963.6    0.00 
 295    5:30   0.00   60.9    64    3.7    83     6.2   963.7    0.00 
 295    5:40   0.00   60.8    77    4.9   119     6.1   963.7    0.00 
 295    5:50   0.00   60.6    87    5.1   147     6.3   963.7    0.00 
 295    6:00   0.00   60.3    91    6.5   152     7.4   963.7    0.00 
 295    6:10   0.00   60.2    92    4.7   148     6.6   964.0    0.00 
 295    6:20   0.01   60.0    81    5.5   105     6.7   964.2    0.00 
 295    6:30   0.03   60.2    84    4.4    53     5.3   964.3    0.00 
 295    6:40   0.06   60.7    84    3.9    50     5.9   964.4    0.00 
 295    6:50   0.09   60.9    82    3.6    48     4.5   964.5    0.00 
 295    7:00   0.12   60.8    79    4.5    69     6.7   964.6    0.00 
 295    7:10   0.15   61.8    72    3.9    61     4.9   964.8    0.00 
 295    7:20   0.18   62.6    72    3.7    66     5.0   964.9    0.00 
 295    7:30   0.22   62.9    73    4.2    63     6.8   965.1    0.00 
 295    7:40   0.25   62.9    74    4.3    73     6.1   965.1    0.00 
 295    7:50   0.28   63.9    70    3.4    76     6.5   965.2    0.00 
 295    8:00   0.32   64.9    66    2.8   121     6.4   965.2    0.00 
 295    8:10   0.35   67.6    60    2.9   137     5.6   965.1    0.00 
 295    8:20   0.38   68.9    60    2.2   136     4.3   965.0    0.00 
 295    8:30   0.41   69.2    61    1.4   126     4.3   965.1    0.00 
 295    8:40   0.44   68.4    63    1.2    34     3.6   965.1    0.00 
 295    8:50   0.47   68.9    64    1.4    92     4.5   965.1    0.00 
 295    9:00   0.44   70.6    61    1.7    82     3.9   965.1    0.00 
 295    9:10   0.49   70.9    60    1.6    56     4.0   965.2    0.00 
 295    9:20   0.50   70.9    60    3.6    47     7.7   965.2    0.00 
 295    9:30   0.55   70.9    60    3.1    46     6.8   965.1    0.00 
 295    9:40   0.59   71.9    58    2.4    50     4.2   965.2    0.00 
 295    9:50   0.61   73.8    53    2.8    59     5.2   965.3    0.00 
 295   10:00   0.63   75.4    45    2.7    60     5.6   965.5    0.00 
 295   10:10   0.65   76.5    43    3.3    64     5.6   965.6    0.00 
 295   10:20   0.64   77.7    42    2.8    59     7.1   965.5    0.00 
 295   10:30   0.68   78.5    38    3.3    57     7.0   965.5    0.00 
 295   10:40   0.68   78.3    36    2.3    65     5.7   965.5    0.00 
 295   10:50   0.69   77.9    35    2.4    54     5.3   965.5    0.00 
 295   11:00   0.70   78.9    38    2.7    99     5.4   965.6    0.00 
 295   11:10   0.71   79.5    33    2.8    68     6.3   965.6    0.00 
 295   11:20   0.71   80.7    31    2.2    66     6.1   965.6    0.00 
 295   11:30   0.72   80.9    31    2.4    47     5.6   965.5    0.00 
 295   11:40   0.72   81.4    31    2.1    70     5.1   965.3    0.00 
 295   11:50   0.72   81.3    38    2.5   122     6.8   965.2    0.00 
 295   12:00   0.71   81.8    34    2.6    65     5.0   965.1    0.00 
 295   12:10   0.71   83.8    33    2.6    76     6.4   965.1    0.00 
 295   12:20   0.71   83.9    36    3.3    56     6.6   965.0    0.00 
 295   12:30   0.69   83.1    41    4.3    46     7.7   964.9    0.00 
 295   12:40   0.69   79.2    43    5.7    39     9.2   964.9    0.00 
 295   12:50   0.68   78.3    40    5.1    37     9.4   964.9    0.00 
 295   13:00   0.67   76.8    46    6.2    40    10.6   964.8    0.00 
 295   13:10   0.59   77.1    45    6.8    36    11.0   964.7    0.00 
 295   13:20   0.63   74.0    52    6.4    35     9.3   964.6    0.00 
 295   13:30   0.62   73.3    54    5.9    34     9.4   964.4    0.00 
 295   13:40   0.57   73.4    53    5.3    38     8.8   964.4    0.00 
 295   13:50   0.57   74.2    51    6.7    33    10.5   964.3    0.00 
 295   14:00   0.55   72.3    55    8.3    26    10.9   964.2    0.00 
 295   14:10   0.52   70.8    58    9.2    26    12.7   964.3    0.00 
 295   14:20   0.48   70.4    60    8.8    32    11.8   964.1    0.00 
 295   14:30   0.45   70.2    60    8.2    37    11.3   964.1    0.00 
 295   14:40   0.44   71.5    59    5.6    32     7.7   964.1    0.00 
 295   14:50   0.42   72.2    57    5.1    16     6.3   964.0    0.00 
 295   15:00   0.39   73.1    54    3.8    10     5.1   963.9    0.00 
 295   15:10   0.35   74.2    51    2.7   349     5.3   963.9    0.00 
 295   15:20   0.32   75.9    48    1.8    40     2.9   963.9    0.00 
 295   15:30   0.29   79.3    44    1.7    35     3.2   964.0    0.00 
 295   15:40   0.26   78.7    45    2.3     5     4.2   964.0    0.00 
 295   15:50   0.22   74.8    51    5.3   357     8.0   964.0    0.00 
 295   16:00   0.19   72.0    54    6.5   356     8.6   963.9    0.00 
 295   16:10   0.16   71.7    53    5.2   342     7.5   963.8    0.00 
 295   16:20   0.13   73.2    47    4.8   326     7.5   963.6    0.00 
 295   16:30   0.10   75.4    42    3.0   304     4.8   963.6    0.00 
 295   16:40   0.07   75.7    40    4.7   319     7.8   963.6    0.00 
 295   16:50   0.04   74.7    37    5.5   314     8.1   963.5    0.00 
 295   17:00   0.02   74.0    35    4.4   321     8.6   963.5    0.00 
 295   17:10   0.01   74.1    37    3.3   301     5.6   963.6    0.00 
 295   17:20   0.00   73.3    37    2.6   298     5.7   963.8    0.00 
 295   17:30   0.00   72.3    37    4.6   306     6.2   963.9    0.00 
 295   17:40   0.00   71.6    46    2.9   274     6.0   964.0    0.00 
 295   17:50   0.00   71.1    44    3.9   295     5.6   964.1    0.00 
 295   18:00   0.00   71.9    41    3.5   296     5.3   964.2    0.00 
 295   18:10   0.00   72.3    35    5.1   305     6.6   964.3    0.00 
 295   18:20   0.00   72.8    31    5.0   308     6.1   964.5    0.00 
 295   18:30   0.00   73.1    31    4.7   293     6.4   964.6    0.00 
 295   18:40   0.00   73.6    30    4.4   285     6.1   964.6    0.00 
 295   18:50   0.00   73.6    30    2.4   268     4.5   964.7    0.00 
 295   19:00   0.00   73.8    30    2.7   319     4.2   964.8    0.00 
 295   19:10   0.00   73.7    31    4.2   301     6.2   964.8    0.00 
 295   19:20   0.00   73.5    31    5.4   290     6.7   964.8    0.00 
 295   19:30   0.00   73.4    31    3.4   240     5.8   964.9    0.00 
 295   19:40   0.00   73.5    29    2.2   214     3.1   964.8    0.00 
 295   19:50   0.00   73.8    31    3.5   182     4.5   964.8    0.00 
 295   20:00   0.00   73.4    30    2.8   346     5.6   964.9    0.00 
 295   20:10   0.00   71.5    34    3.5    30     5.6   965.0    0.00 
 295   20:20   0.00   72.2    32    2.1   344     2.7   965.1    0.00 
 295   20:30   0.00   73.4    30    2.7   343     4.1   965.2    0.00 
 295   20:40   0.00   72.1    34    3.9    12     4.7   965.2    0.00 
 295   20:50   0.00   72.0    32    4.6   336     5.3   965.2    0.00 
 295   21:00   0.00   73.1    28    3.5   261     6.4   965.3    0.00 
 295   21:10   0.00   73.9    25    2.3   213     3.4   965.3    0.00 
 295   21:20   0.00   74.3    26    2.3   198     3.2   965.3    0.00 
 295   21:30   0.00   74.6    24    2.1   208     3.3   965.4    0.00 
 295   21:40   0.00   74.5    24    0.9   232     2.2   965.5    0.00 
 295   21:50   0.00   73.0    31    1.7   145     2.9   965.5    0.00 
 295   22:00   0.00   71.4    34    2.2   149     3.7   965.4    0.00 
 295   22:10   0.00   70.8    38    3.8   142     4.7   965.3    0.00 
 295   22:20   0.00   70.8    36    4.1   164     6.0   965.3    0.00 
 295   22:30   0.00   71.3    39    4.3   156     6.5   965.3    0.00 
 295   22:40   0.00   70.2    48    4.0   141     5.8   965.3    0.00 
 295   22:50   0.00   69.5    50    5.8   139     6.5   965.3    0.00 
 295   23:00   0.00   69.0    49    6.6   142     8.3   965.3    0.00 
 295   23:10   0.00   68.8    48    4.7   150     5.6   965.3    0.00 
 295   23:20   0.00   69.3    41    5.0   171     6.4   965.3    0.00 
 295   23:30   0.00   70.4    39    5.0   183     5.6   965.3    0.00 
 295   23:40   0.00   70.4    41    5.0   167     6.3   965.3    0.00 
 295   23:50   0.00   69.1    46    5.2   154     6.7   965.3    0.00 
 296    0:00   0.00   69.0    45    5.7   152     6.8   965.3    0.00 
 296    0:10   0.00   68.7    45    4.6   156     6.0   965.4    0.00 
 296    0:20   0.00   68.8    43    4.8   152     5.5   965.4    0.00 

Return to Valley Peak, Santa Cruz Island Reserve graphs page.


Western Regional Climate Center,wrcc@dri.edu